Wangaratta Airport
YWGT : rendu visible

Aérodrome :











RETROUVEZ-NOUS SUR...

 
LOGIN :

S'inscrire | Disclaimer

   EN    FR    IT 

 









Légende :    VFR   VFR Marginal   IFR   IFR Intensif   IFR Très Intensif
Visi : 
Plafond : 
>= 8 km
>= 3000ft
5 à 8 km
1000 à 3000 ft
1500m à 5 km
500 à 1000 ft
800 à 1500m
200 à 500 ft
< 800m
< 200 ft
Symboles :   Orages  Brouillard  Fortes neiges  Fortes précipitations  Vent > 20 kt






- Altitude de l'aérodrome : 504 ft
- Code IATA : WGT


YWGT - Wangaratta

DERNIER METAR :
  • 310000Z AUTO 01007KT 9999 // BKN059 BKN068 OVC081 12/08 Q1015

METARs EXPIRÉS :
  • 302300Z AUTO 34001KT 9999 // BKN079 BKN090 OVC110 11/08 Q1015
  • 302200Z AUTO 30001KT 9999 // OVC110 09/09 Q1015

TAF TAF YWGT
Valide du 30 à 20h jusqu'au 31 à 08h UTC


301830Z 3020/3108 01010KT 9999 -SHRA NSC
FM310000 01007KT 9999 BKN025
FIR YMMM / Océanie



MET'MAP, la Météo Aéronautique d'un coup d'oeil ! - Copyright ORBIFLY Décembre 2007 - Disclaimer

ORBIFLY MET'MAP TEAM :

Programmation & Développement : Alexandra Zaïnal
Sur une idée originale de : Baudouin d'Aumeries
Assistance à la programmation : Marc-Olivier Méhu
Soutien technique & logistique : Manuel Goepfert

Contact : metmap@orbifly.com




SOURCES & CREDITS :

   NOAA       Earth
Advisory